sensor_id;sensor_type;location;lat;lon;timestamp;temperature;humidity
67157;SHT31;54086;50.126;8.710;2023-07-20T00:00:22;21.18;61.90
67157;SHT31;54086;50.126;8.710;2023-07-20T00:02:50;21.08;62.19
67157;SHT31;54086;50.126;8.710;2023-07-20T00:05:16;21.09;62.19
67157;SHT31;54086;50.126;8.710;2023-07-20T00:07:43;21.17;62.06
67157;SHT31;54086;50.126;8.710;2023-07-20T00:10:09;21.02;62.40
67157;SHT31;54086;50.126;8.710;2023-07-20T00:12:35;20.98;62.56
67157;SHT31;54086;50.126;8.710;2023-07-20T00:15:00;21.04;62.51
67157;SHT31;54086;50.126;8.710;2023-07-20T00:17:26;21.05;62.53
67157;SHT31;54086;50.126;8.710;2023-07-20T00:19:51;21.04;62.52
67157;SHT31;54086;50.126;8.710;2023-07-20T00:22:17;21.00;62.77
67157;SHT31;54086;50.126;8.710;2023-07-20T00:24:42;21.12;62.40
67157;SHT31;54086;50.126;8.710;2023-07-20T00:27:08;21.01;62.82
67157;SHT31;54086;50.126;8.710;2023-07-20T00:29:34;20.98;62.79
67157;SHT31;54086;50.126;8.710;2023-07-20T00:32:00;20.77;63.36
67157;SHT31;54086;50.126;8.710;2023-07-20T00:34:26;20.53;64.01
67157;SHT31;54086;50.126;8.710;2023-07-20T00:36:51;20.70;63.81
67157;SHT31;54086;50.126;8.710;2023-07-20T00:39:16;20.78;63.64
67157;SHT31;54086;50.126;8.710;2023-07-20T00:41:42;20.83;63.51
67157;SHT31;54086;50.126;8.710;2023-07-20T00:44:07;20.85;63.40
67157;SHT31;54086;50.126;8.710;2023-07-20T00:46:33;20.95;63.41
67157;SHT31;54086;50.126;8.710;2023-07-20T00:48:58;20.85;63.43
67157;SHT31;54086;50.126;8.710;2023-07-20T00:51:25;20.85;63.64
67157;SHT31;54086;50.126;8.710;2023-07-20T00:53:51;20.88;63.46
67157;SHT31;54086;50.126;8.710;2023-07-20T00:56:17;20.71;63.94
67157;SHT31;54086;50.126;8.710;2023-07-20T00:58:42;20.61;64.49
67157;SHT31;54086;50.126;8.710;2023-07-20T01:01:08;20.56;64.51
67157;SHT31;54086;50.126;8.710;2023-07-20T01:03:33;20.57;64.56
67157;SHT31;54086;50.126;8.710;2023-07-20T01:09:05;20.67;64.47
67157;SHT31;54086;50.126;8.710;2023-07-20T01:11:43;20.59;64.64
67157;SHT31;54086;50.126;8.710;2023-07-20T01:14:11;20.49;64.93
67157;SHT31;54086;50.126;8.710;2023-07-20T01:16:37;20.43;65.04
67157;SHT31;54086;50.126;8.710;2023-07-20T01:19:02;20.41;65.17
67157;SHT31;54086;50.126;8.710;2023-07-20T01:21:53;20.56;64.98
67157;SHT31;54086;50.126;8.710;2023-07-20T01:30:14;20.20;66.05
67157;SHT31;54086;50.126;8.710;2023-07-20T01:32:42;20.12;66.29
67157;SHT31;54086;50.126;8.710;2023-07-20T01:35:10;20.04;66.56
67157;SHT31;54086;50.126;8.710;2023-07-20T01:37:40;19.98;66.83
67157;SHT31;54086;50.126;8.710;2023-07-20T01:40:07;19.81;67.23
67157;SHT31;54086;50.126;8.710;2023-07-20T01:42:32;19.95;67.10
67157;SHT31;54086;50.126;8.710;2023-07-20T01:44:58;19.96;66.98
67157;SHT31;54086;50.126;8.710;2023-07-20T01:47:23;20.02;66.95
67157;SHT31;54086;50.126;8.710;2023-07-20T01:49:48;19.93;67.13
67157;SHT31;54086;50.126;8.710;2023-07-20T01:52:14;19.92;67.23
67157;SHT31;54086;50.126;8.710;2023-07-20T01:54:40;20.05;67.05
67157;SHT31;54086;50.126;8.710;2023-07-20T01:57:05;20.04;67.11
67157;SHT31;54086;50.126;8.710;2023-07-20T01:59:31;19.85;67.72
67157;SHT31;54086;50.126;8.710;2023-07-20T02:01:56;19.64;68.31
67157;SHT31;54086;50.126;8.710;2023-07-20T02:04:22;19.62;68.53
67157;SHT31;54086;50.126;8.710;2023-07-20T02:06:47;19.47;68.85
67157;SHT31;54086;50.126;8.710;2023-07-20T02:09:12;19.49;68.94
67157;SHT31;54086;50.126;8.710;2023-07-20T02:11:38;19.55;68.87
67157;SHT31;54086;50.126;8.710;2023-07-20T02:14:03;19.67;68.58
67157;SHT31;54086;50.126;8.710;2023-07-20T02:16:29;19.62;68.55
67157;SHT31;54086;50.126;8.710;2023-07-20T02:18:54;19.64;68.48
67157;SHT31;54086;50.126;8.710;2023-07-20T02:21:22;19.67;68.45
67157;SHT31;54086;50.126;8.710;2023-07-20T02:23:48;19.64;68.56
67157;SHT31;54086;50.126;8.710;2023-07-20T02:26:14;19.62;68.53
67157;SHT31;54086;50.126;8.710;2023-07-20T02:28:40;19.62;68.62
67157;SHT31;54086;50.126;8.710;2023-07-20T02:31:06;19.67;68.68
67157;SHT31;54086;50.126;8.710;2023-07-20T02:33:31;19.57;68.83
67157;SHT31;54086;50.126;8.710;2023-07-20T02:35:57;19.60;69.00
67157;SHT31;54086;50.126;8.710;2023-07-20T02:38:22;19.67;68.62
67157;SHT31;54086;50.126;8.710;2023-07-20T02:40:48;19.71;68.67
67157;SHT31;54086;50.126;8.710;2023-07-20T02:43:13;19.61;68.86
67157;SHT31;54086;50.126;8.710;2023-07-20T02:45:42;19.53;69.04
67157;SHT31;54086;50.126;8.710;2023-07-20T02:48:10;19.41;69.44
67157;SHT31;54086;50.126;8.710;2023-07-20T02:50:35;19.38;69.39
67157;SHT31;54086;50.126;8.710;2023-07-20T02:53:02;19.51;69.41
67157;SHT31;54086;50.126;8.710;2023-07-20T02:55:27;19.49;69.24
67157;SHT31;54086;50.126;8.710;2023-07-20T02:57:53;19.50;69.35
67157;SHT31;54086;50.126;8.710;2023-07-20T03:00:18;19.51;69.25
67157;SHT31;54086;50.126;8.710;2023-07-20T03:02:45;19.53;69.28
67157;SHT31;54086;50.126;8.710;2023-07-20T03:05:13;19.53;69.21
67157;SHT31;54086;50.126;8.710;2023-07-20T03:07:39;19.35;69.61
67157;SHT31;54086;50.126;8.710;2023-07-20T03:10:05;19.37;69.61
67157;SHT31;54086;50.126;8.710;2023-07-20T03:12:34;19.47;69.34
67157;SHT31;54086;50.126;8.710;2023-07-20T03:15:00;19.41;69.50
67157;SHT31;54086;50.126;8.710;2023-07-20T03:17:25;19.43;69.33
67157;SHT31;54086;50.126;8.710;2023-07-20T03:19:51;19.40;69.19
67157;SHT31;54086;50.126;8.710;2023-07-20T03:22:16;19.27;69.29
67157;SHT31;54086;50.126;8.710;2023-07-20T03:24:42;19.33;69.38
67157;SHT31;54086;50.126;8.710;2023-07-20T03:27:07;19.31;69.20
67157;SHT31;54086;50.126;8.710;2023-07-20T03:29:33;19.43;69.23
67157;SHT31;54086;50.126;8.710;2023-07-20T03:31:58;19.49;68.97
67157;SHT31;54086;50.126;8.710;2023-07-20T03:34:24;19.27;69.37
67157;SHT31;54086;50.126;8.710;2023-07-20T03:36:50;19.37;69.28
67157;SHT31;54086;50.126;8.710;2023-07-20T03:39:15;19.31;69.16
67157;SHT31;54086;50.126;8.710;2023-07-20T03:41:41;19.44;69.12
67157;SHT31;54086;50.126;8.710;2023-07-20T03:44:06;19.40;69.21
67157;SHT31;54086;50.126;8.710;2023-07-20T03:46:31;19.20;69.66
67157;SHT31;54086;50.126;8.710;2023-07-20T03:48:59;19.10;69.93
67157;SHT31;54086;50.126;8.710;2023-07-20T03:51:24;19.07;70.13
67157;SHT31;54086;50.126;8.710;2023-07-20T03:53:50;18.99;70.28
67157;SHT31;54086;50.126;8.710;2023-07-20T03:56:15;19.03;70.24
67157;SHT31;54086;50.126;8.710;2023-07-20T03:58:40;19.06;70.29
67157;SHT31;54086;50.126;8.710;2023-07-20T04:01:06;19.04;70.27
67157;SHT31;54086;50.126;8.710;2023-07-20T04:03:32;19.09;70.24
67157;SHT31;54086;50.126;8.710;2023-07-20T04:05:57;19.04;70.28
67157;SHT31;54086;50.126;8.710;2023-07-20T04:08:23;19.07;70.28
67157;SHT31;54086;50.126;8.710;2023-07-20T04:10:49;19.00;70.36
67157;SHT31;54086;50.126;8.710;2023-07-20T04:13:15;19.20;69.87
67157;SHT31;54086;50.126;8.710;2023-07-20T04:15:42;19.31;69.51
67157;SHT31;54086;50.126;8.710;2023-07-20T04:18:07;19.30;69.28
67157;SHT31;54086;50.126;8.710;2023-07-20T04:20:32;19.24;69.40
67157;SHT31;54086;50.126;8.710;2023-07-20T04:22:58;19.21;69.88
67157;SHT31;54086;50.126;8.710;2023-07-20T04:25:23;18.96;70.27
67157;SHT31;54086;50.126;8.710;2023-07-20T04:27:49;18.68;70.90
67157;SHT31;54086;50.126;8.710;2023-07-20T04:30:17;18.44;71.50
67157;SHT31;54086;50.126;8.710;2023-07-20T04:32:45;18.24;72.05
67157;SHT31;54086;50.126;8.710;2023-07-20T04:35:44;18.21;72.08
67157;SHT31;54086;50.126;8.710;2023-07-20T04:38:03;18.15;72.20
67157;SHT31;54086;50.126;8.710;2023-07-20T04:40:28;18.08;72.39
67157;SHT31;54086;50.126;8.710;2023-07-20T04:42:53;18.05;72.48
67157;SHT31;54086;50.126;8.710;2023-07-20T04:45:19;18.00;72.51
67157;SHT31;54086;50.126;8.710;2023-07-20T04:47:44;18.03;72.52
67157;SHT31;54086;50.126;8.710;2023-07-20T04:50:09;18.05;72.44
67157;SHT31;54086;50.126;8.710;2023-07-20T04:52:35;18.00;72.48
67157;SHT31;54086;50.126;8.710;2023-07-20T04:55:00;18.03;72.47
67157;SHT31;54086;50.126;8.710;2023-07-20T04:57:26;18.03;72.45
67157;SHT31;54086;50.126;8.710;2023-07-20T04:59:52;17.89;72.56
67157;SHT31;54086;50.126;8.710;2023-07-20T05:02:17;17.91;72.56
67157;SHT31;54086;50.126;8.710;2023-07-20T05:04:42;17.97;72.53
67157;SHT31;54086;50.126;8.710;2023-07-20T05:07:08;17.93;72.67
67157;SHT31;54086;50.126;8.710;2023-07-20T05:09:34;17.84;72.90
67157;SHT31;54086;50.126;8.710;2023-07-20T05:11:59;17.90;72.77
67157;SHT31;54086;50.126;8.710;2023-07-20T05:14:24;17.84;72.93
67157;SHT31;54086;50.126;8.710;2023-07-20T05:16:50;17.80;73.04
67157;SHT31;54086;50.126;8.710;2023-07-20T05:19:15;17.77;73.16
67157;SHT31;54086;50.126;8.710;2023-07-20T05:21:40;17.82;73.21
67157;SHT31;54086;50.126;8.710;2023-07-20T05:24:06;17.86;73.25
67157;SHT31;54086;50.126;8.710;2023-07-20T05:26:32;17.96;73.08
67157;SHT31;54086;50.126;8.710;2023-07-20T05:28:58;17.97;73.13
67157;SHT31;54086;50.126;8.710;2023-07-20T05:31:23;18.10;72.73
67157;SHT31;54086;50.126;8.710;2023-07-20T05:33:49;18.04;72.80
67157;SHT31;54086;50.126;8.710;2023-07-20T05:36:15;18.15;72.48
67157;SHT31;54086;50.126;8.710;2023-07-20T05:38:40;18.28;72.18
67157;SHT31;54086;50.126;8.710;2023-07-20T05:41:06;18.34;72.06
67157;SHT31;54086;50.126;8.710;2023-07-20T05:43:35;18.48;71.65
67157;SHT31;54086;50.126;8.710;2023-07-20T05:46:01;18.58;71.45
67157;SHT31;54086;50.126;8.710;2023-07-20T05:48:26;18.96;70.62
67157;SHT31;54086;50.126;8.710;2023-07-20T05:50:51;19.06;70.20
67157;SHT31;54086;50.126;8.710;2023-07-20T05:53:17;19.07;70.35
67157;SHT31;54086;50.126;8.710;2023-07-20T05:55:42;19.23;69.86
67157;SHT31;54086;50.126;8.710;2023-07-20T05:58:08;19.31;69.53
67157;SHT31;54086;50.126;8.710;2023-07-20T06:00:33;19.44;69.16
67157;SHT31;54086;50.126;8.710;2023-07-20T06:02:59;19.20;69.73
67157;SHT31;54086;50.126;8.710;2023-07-20T06:05:24;19.14;70.12
67157;SHT31;54086;50.126;8.710;2023-07-20T06:07:50;19.27;69.85
67157;SHT31;54086;50.126;8.710;2023-07-20T06:10:15;19.17;70.12
67157;SHT31;54086;50.126;8.710;2023-07-20T06:12:41;19.34;69.93
67157;SHT31;54086;50.126;8.710;2023-07-20T06:15:24;19.31;70.08
67157;SHT31;54086;50.126;8.710;2023-07-20T06:17:51;19.28;70.17
67157;SHT31;54086;50.126;8.710;2023-07-20T06:20:16;19.40;69.89
67157;SHT31;54086;50.126;8.710;2023-07-20T06:22:44;19.49;69.77
67157;SHT31;54086;50.126;8.710;2023-07-20T06:25:10;19.62;69.48
67157;SHT31;54086;50.126;8.710;2023-07-20T06:27:36;19.53;69.87
67157;SHT31;54086;50.126;8.710;2023-07-20T06:30:01;19.61;69.79
67157;SHT31;54086;50.126;8.710;2023-07-20T06:32:28;19.57;69.84
67157;SHT31;54086;50.126;8.710;2023-07-20T06:34:53;19.70;69.56
67157;SHT31;54086;50.126;8.710;2023-07-20T06:37:18;19.95;69.10
67157;SHT31;54086;50.126;8.710;2023-07-20T06:39:45;19.88;69.09
67157;SHT31;54086;50.126;8.710;2023-07-20T06:42:11;19.82;69.43
67157;SHT31;54086;50.126;8.710;2023-07-20T06:44:36;19.88;69.34
67157;SHT31;54086;50.126;8.710;2023-07-20T06:47:02;19.81;69.32
67157;SHT31;54086;50.126;8.710;2023-07-20T06:49:28;19.79;69.29
67157;SHT31;54086;50.126;8.710;2023-07-20T06:51:54;20.01;68.79
67157;SHT31;54086;50.126;8.710;2023-07-20T06:54:20;19.95;68.81
67157;SHT31;54086;50.126;8.710;2023-07-20T06:56:45;19.99;68.67
67157;SHT31;54086;50.126;8.710;2023-07-20T06:59:11;19.93;68.69
67157;SHT31;54086;50.126;8.710;2023-07-20T07:01:36;19.85;69.23
67157;SHT31;54086;50.126;8.710;2023-07-20T07:04:02;19.85;69.14
67157;SHT31;54086;50.126;8.710;2023-07-20T07:06:28;20.10;68.47
67157;SHT31;54086;50.126;8.710;2023-07-20T07:08:54;20.01;68.57
67157;SHT31;54086;50.126;8.710;2023-07-20T07:11:21;19.89;68.79
67157;SHT31;54086;50.126;8.710;2023-07-20T07:13:47;19.85;69.01
67157;SHT31;54086;50.126;8.710;2023-07-20T07:16:15;19.98;68.59
67157;SHT31;54086;50.126;8.710;2023-07-20T07:18:44;20.20;68.12
67157;SHT31;54086;50.126;8.710;2023-07-20T07:21:10;20.12;68.19
67157;SHT31;54086;50.126;8.710;2023-07-20T07:23:35;20.10;68.27
67157;SHT31;54086;50.126;8.710;2023-07-20T07:26:01;20.09;68.34
67157;SHT31;54086;50.126;8.710;2023-07-20T07:28:28;20.33;67.83
67157;SHT31;54086;50.126;8.710;2023-07-20T07:30:55;20.49;67.31
67157;SHT31;54086;50.126;8.710;2023-07-20T07:33:20;20.44;67.51
67157;SHT31;54086;50.126;8.710;2023-07-20T07:35:45;20.83;66.71
67157;SHT31;54086;50.126;8.710;2023-07-20T07:38:11;20.77;66.61
67157;SHT31;54086;50.126;8.710;2023-07-20T07:40:36;20.84;66.42
67157;SHT31;54086;50.126;8.710;2023-07-20T07:43:02;21.07;65.85
67157;SHT31;54086;50.126;8.710;2023-07-20T07:45:28;20.98;66.11
67157;SHT31;54086;50.126;8.710;2023-07-20T07:47:54;20.95;66.07
67157;SHT31;54086;50.126;8.710;2023-07-20T07:50:19;21.22;65.50
67157;SHT31;54086;50.126;8.710;2023-07-20T07:52:45;21.15;65.70
67157;SHT31;54086;50.126;8.710;2023-07-20T07:55:10;21.08;65.90
67157;SHT31;54086;50.126;8.710;2023-07-20T07:57:36;21.08;65.90
67157;SHT31;54086;50.126;8.710;2023-07-20T08:00:01;21.18;65.58
67157;SHT31;54086;50.126;8.710;2023-07-20T08:02:26;21.01;66.02
67157;SHT31;54086;50.126;8.710;2023-07-20T08:04:57;20.81;66.84
67157;SHT31;54086;50.126;8.710;2023-07-20T08:07:22;21.05;66.24
67157;SHT31;54086;50.126;8.710;2023-07-20T08:09:48;21.19;65.57
67157;SHT31;54086;50.126;8.710;2023-07-20T08:12:13;21.34;65.43
67157;SHT31;54086;50.126;8.710;2023-07-20T08:14:39;21.46;64.82
67157;SHT31;54086;50.126;8.710;2023-07-20T08:17:04;21.55;64.68
67157;SHT31;54086;50.126;8.710;2023-07-20T08:19:29;21.63;63.99
67157;SHT31;54086;50.126;8.710;2023-07-20T08:21:55;21.93;62.89
67157;SHT31;54086;50.126;8.710;2023-07-20T08:24:20;21.93;62.70
67157;SHT31;54086;50.126;8.710;2023-07-20T08:26:46;22.18;62.04
67157;SHT31;54086;50.126;8.710;2023-07-20T08:29:11;22.30;61.67
67157;SHT31;54086;50.126;8.710;2023-07-20T08:31:37;21.72;62.67
67157;SHT31;54086;50.126;8.710;2023-07-20T08:34:02;21.86;62.93
67157;SHT31;54086;50.126;8.710;2023-07-20T08:36:27;21.94;62.93
67157;SHT31;54086;50.126;8.710;2023-07-20T08:38:53;22.38;61.98
67157;SHT31;54086;50.126;8.710;2023-07-20T08:41:19;22.68;61.19
67157;SHT31;54086;50.126;8.710;2023-07-20T08:43:45;22.91;60.55
67157;SHT31;54086;50.126;8.710;2023-07-20T08:46:12;22.34;62.24
67157;SHT31;54086;50.126;8.710;2023-07-20T08:48:40;22.43;61.44
67157;SHT31;54086;50.126;8.710;2023-07-20T08:51:06;22.92;60.43
67157;SHT31;54086;50.126;8.710;2023-07-20T08:53:32;23.88;58.06
67157;SHT31;54086;50.126;8.710;2023-07-20T08:55:59;24.04;57.16
67157;SHT31;54086;50.126;8.710;2023-07-20T08:58:25;24.25;56.91
67157;SHT31;54086;50.126;8.710;2023-07-20T09:00:52;24.93;55.60
67157;SHT31;54086;50.126;8.710;2023-07-20T09:03:18;23.79;57.62
67157;SHT31;54086;50.126;8.710;2023-07-20T09:05:45;23.28;59.12
67157;SHT31;54086;50.126;8.710;2023-07-20T09:08:10;22.68;60.80
67157;SHT31;54086;50.126;8.710;2023-07-20T09:10:36;22.58;61.13
67157;SHT31;54086;50.126;8.710;2023-07-20T09:13:01;22.45;61.12
67157;SHT31;54086;50.126;8.710;2023-07-20T09:15:28;22.41;60.22
67157;SHT31;54086;50.126;8.710;2023-07-20T09:17:54;22.89;58.72
67157;SHT31;54086;50.126;8.710;2023-07-20T09:20:20;23.34;57.34
67157;SHT31;54086;50.126;8.710;2023-07-20T09:22:46;23.24;57.53
67157;SHT31;54086;50.126;8.710;2023-07-20T09:25:13;23.30;57.60
67157;SHT31;54086;50.126;8.710;2023-07-20T09:27:41;23.36;57.84
67157;SHT31;54086;50.126;8.710;2023-07-20T09:30:07;23.02;58.54
67157;SHT31;54086;50.126;8.710;2023-07-20T09:32:41;22.76;59.00
67157;SHT31;54086;50.126;8.710;2023-07-20T09:35:21;22.43;60.15
67157;SHT31;54086;50.126;8.710;2023-07-20T09:38:00;22.38;60.50
67157;SHT31;54086;50.126;8.710;2023-07-20T09:40:37;22.64;59.96
67157;SHT31;54086;50.126;8.710;2023-07-20T09:43:10;22.64;60.20
67157;SHT31;54086;50.126;8.710;2023-07-20T09:45:40;22.62;60.24
67157;SHT31;54086;50.126;8.710;2023-07-20T09:48:07;22.78;59.59
67157;SHT31;54086;50.126;8.710;2023-07-20T09:50:43;22.58;58.77
67157;SHT31;54086;50.126;8.710;2023-07-20T09:53:13;22.37;58.88
67157;SHT31;54086;50.126;8.710;2023-07-20T09:55:44;22.68;58.53
67157;SHT31;54086;50.126;8.710;2023-07-20T09:58:09;22.88;58.83
67157;SHT31;54086;50.126;8.710;2023-07-20T10:00:40;23.09;59.02
67157;SHT31;54086;50.126;8.710;2023-07-20T10:03:05;22.82;59.42
67157;SHT31;54086;50.126;8.710;2023-07-20T10:05:33;23.00;59.03
67157;SHT31;54086;50.126;8.710;2023-07-20T10:08:01;23.82;58.15
67157;SHT31;54086;50.126;8.710;2023-07-20T10:10:28;24.70;55.62
67157;SHT31;54086;50.126;8.710;2023-07-20T10:12:57;24.79;54.91
67157;SHT31;54086;50.126;8.710;2023-07-20T10:15:33;25.32;53.12
67157;SHT31;54086;50.126;8.710;2023-07-20T10:18:12;24.94;53.43
67157;SHT31;54086;50.126;8.710;2023-07-20T10:20:40;25.21;53.42
67157;SHT31;54086;50.126;8.710;2023-07-20T10:23:09;25.14;53.34
67157;SHT31;54086;50.126;8.710;2023-07-20T10:25:35;24.45;54.71
67157;SHT31;54086;50.126;8.710;2023-07-20T10:28:05;24.29;55.06
67157;SHT31;54086;50.126;8.710;2023-07-20T10:30:34;24.93;53.80
67157;SHT31;54086;50.126;8.710;2023-07-20T10:33:01;23.79;55.78
67157;SHT31;54086;50.126;8.710;2023-07-20T10:35:28;24.02;55.62
67157;SHT31;54086;50.126;8.710;2023-07-20T10:37:55;24.84;53.47
67157;SHT31;54086;50.126;8.710;2023-07-20T10:40:28;24.91;53.68
67157;SHT31;54086;50.126;8.710;2023-07-20T10:43:16;24.28;54.68
67157;SHT31;54086;50.126;8.710;2023-07-20T10:45:52;23.73;56.05
67157;SHT31;54086;50.126;8.710;2023-07-20T10:48:24;24.82;54.50
67157;SHT31;54086;50.126;8.710;2023-07-20T10:51:12;25.48;52.74
67157;SHT31;54086;50.126;8.710;2023-07-20T10:53:40;25.13;53.48
67157;SHT31;54086;50.126;8.710;2023-07-20T10:56:12;24.42;54.36
67157;SHT31;54086;50.126;8.710;2023-07-20T10:58:40;24.52;54.47
67157;SHT31;54086;50.126;8.710;2023-07-20T11:01:07;24.24;55.25
67157;SHT31;54086;50.126;8.710;2023-07-20T11:03:35;24.42;55.20
67157;SHT31;54086;50.126;8.710;2023-07-20T11:08:49;24.98;54.02
67157;SHT31;54086;50.126;8.710;2023-07-20T11:11:22;26.10;50.79
67157;SHT31;54086;50.126;8.710;2023-07-20T11:13:58;25.25;51.58
67157;SHT31;54086;50.126;8.710;2023-07-20T11:16:34;25.28;51.51
67157;SHT31;54086;50.126;8.710;2023-07-20T11:19:00;26.96;48.51
67157;SHT31;54086;50.126;8.710;2023-07-20T11:21:25;26.07;49.33
67157;SHT31;54086;50.126;8.710;2023-07-20T11:23:55;25.54;51.03
67157;SHT31;54086;50.126;8.710;2023-07-20T11:26:21;24.51;53.25
67157;SHT31;54086;50.126;8.710;2023-07-20T11:28:50;24.05;54.31
67157;SHT31;54086;50.126;8.710;2023-07-20T11:31:19;24.91;53.16
67157;SHT31;54086;50.126;8.710;2023-07-20T11:33:46;25.58;51.87
67157;SHT31;54086;50.126;8.710;2023-07-20T11:36:12;25.92;50.16
67157;SHT31;54086;50.126;8.710;2023-07-20T11:38:41;26.67;49.51
67157;SHT31;54086;50.126;8.710;2023-07-20T11:41:08;27.20;48.46
67157;SHT31;54086;50.126;8.710;2023-07-20T11:43:33;26.74;49.66
67157;SHT31;54086;50.126;8.710;2023-07-20T11:45:59;26.26;49.98
67157;SHT31;54086;50.126;8.710;2023-07-20T11:48:26;25.75;51.26
67157;SHT31;54086;50.126;8.710;2023-07-20T11:50:51;25.78;51.51
67157;SHT31;54086;50.126;8.710;2023-07-20T11:53:17;25.58;51.80
67157;SHT31;54086;50.126;8.710;2023-07-20T11:55:42;24.48;53.71
67157;SHT31;54086;50.126;8.710;2023-07-20T11:58:09;24.42;54.22
67157;SHT31;54086;50.126;8.710;2023-07-20T12:00:36;25.04;53.02
67157;SHT31;54086;50.126;8.710;2023-07-20T12:03:05;24.28;54.14
67157;SHT31;54086;50.126;8.710;2023-07-20T12:05:35;23.68;55.42
67157;SHT31;54086;50.126;8.710;2023-07-20T12:08:01;23.91;55.10
67157;SHT31;54086;50.126;8.710;2023-07-20T12:10:27;24.33;54.37
67157;SHT31;54086;50.126;8.710;2023-07-20T12:12:54;24.74;52.48
67157;SHT31;54086;50.126;8.710;2023-07-20T12:15:20;24.90;52.33
67157;SHT31;54086;50.126;8.710;2023-07-20T12:17:49;25.08;51.74
67157;SHT31;54086;50.126;8.710;2023-07-20T12:20:26;26.10;50.75
67157;SHT31;54086;50.126;8.710;2023-07-20T12:22:56;27.13;49.18
67157;SHT31;54086;50.126;8.710;2023-07-20T12:25:22;27.74;47.97
67157;SHT31;54086;50.126;8.710;2023-07-20T12:27:48;27.49;48.23
67157;SHT31;54086;50.126;8.710;2023-07-20T12:30:13;26.72;49.64
67157;SHT31;54086;50.126;8.710;2023-07-20T12:32:39;27.01;49.29
67157;SHT31;54086;50.126;8.710;2023-07-20T12:35:05;27.36;47.80
67157;SHT31;54086;50.126;8.710;2023-07-20T12:37:31;26.85;47.15
67157;SHT31;54086;50.126;8.710;2023-07-20T12:39:57;26.70;47.90
67157;SHT31;54086;50.126;8.710;2023-07-20T12:42:22;25.85;49.55
67157;SHT31;54086;50.126;8.710;2023-07-20T12:44:49;25.78;49.68
67157;SHT31;54086;50.126;8.710;2023-07-20T12:47:16;26.72;48.27
67157;SHT31;54086;50.126;8.710;2023-07-20T12:49:42;26.31;48.71
67157;SHT31;54086;50.126;8.710;2023-07-20T12:52:10;27.01;47.67
67157;SHT31;54086;50.126;8.710;2023-07-20T12:54:36;27.81;46.36
67157;SHT31;54086;50.126;8.710;2023-07-20T12:57:01;29.37;43.85
67157;SHT31;54086;50.126;8.710;2023-07-20T12:59:29;28.84;43.15
67157;SHT31;54086;50.126;8.710;2023-07-20T13:01:54;28.29;44.35
67157;SHT31;54086;50.126;8.710;2023-07-20T13:04:19;27.20;45.94
67157;SHT31;54086;50.126;8.710;2023-07-20T13:06:46;27.40;45.59
67157;SHT31;54086;50.126;8.710;2023-07-20T13:09:11;27.70;46.08
67157;SHT31;54086;50.126;8.710;2023-07-20T13:11:37;28.80;44.48
67157;SHT31;54086;50.126;8.710;2023-07-20T13:14:02;28.19;45.10
67157;SHT31;54086;50.126;8.710;2023-07-20T13:16:28;27.42;46.62
67157;SHT31;54086;50.126;8.710;2023-07-20T13:18:53;28.25;45.42
67157;SHT31;54086;50.126;8.710;2023-07-20T13:21:19;29.34;43.54
67157;SHT31;54086;50.126;8.710;2023-07-20T13:23:48;29.95;42.24
67157;SHT31;54086;50.126;8.710;2023-07-20T13:26:14;30.39;41.92
67157;SHT31;54086;50.126;8.710;2023-07-20T13:28:40;30.61;39.21
67157;SHT31;54086;50.126;8.710;2023-07-20T13:31:05;30.71;39.57
67157;SHT31;54086;50.126;8.710;2023-07-20T13:33:30;31.19;38.11
67157;SHT31;54086;50.126;8.710;2023-07-20T13:35:57;31.15;37.39
67157;SHT31;54086;50.126;8.710;2023-07-20T13:38:23;30.22;39.32
67157;SHT31;54086;50.126;8.710;2023-07-20T13:40:50;29.51;39.96
67157;SHT31;54086;50.126;8.710;2023-07-20T13:43:16;30.10;40.05
67157;SHT31;54086;50.126;8.710;2023-07-20T13:45:41;29.92;39.83
67157;SHT31;54086;50.126;8.710;2023-07-20T13:48:07;28.59;41.97
67157;SHT31;54086;50.126;8.710;2023-07-20T13:50:32;27.86;42.83
67157;SHT31;54086;50.126;8.710;2023-07-20T13:52:59;27.49;43.31
67157;SHT31;54086;50.126;8.710;2023-07-20T13:55:24;27.39;44.04
67157;SHT31;54086;50.126;8.710;2023-07-20T13:57:50;27.39;43.61
67157;SHT31;54086;50.126;8.710;2023-07-20T14:00:16;26.90;44.02
67157;SHT31;54086;50.126;8.710;2023-07-20T14:02:41;27.29;43.96
67157;SHT31;54086;50.126;8.710;2023-07-20T14:05:07;26.88;44.11
67157;SHT31;54086;50.126;8.710;2023-07-20T14:07:35;27.02;43.80
67157;SHT31;54086;50.126;8.710;2023-07-20T14:10:01;26.90;42.93
67157;SHT31;54086;50.126;8.710;2023-07-20T14:12:26;27.13;42.61
67157;SHT31;54086;50.126;8.710;2023-07-20T14:14:54;26.72;43.54
67157;SHT31;54086;50.126;8.710;2023-07-20T14:17:19;28.17;42.18
67157;SHT31;54086;50.126;8.710;2023-07-20T14:19:45;27.88;42.66
67157;SHT31;54086;50.126;8.710;2023-07-20T14:22:10;27.51;43.35
67157;SHT31;54086;50.126;8.710;2023-07-20T14:24:36;27.25;43.77
67157;SHT31;54086;50.126;8.710;2023-07-20T14:27:01;26.87;44.39
67157;SHT31;54086;50.126;8.710;2023-07-20T14:29:27;26.81;44.66
67157;SHT31;54086;50.126;8.710;2023-07-20T14:31:58;26.77;44.50
67157;SHT31;54086;50.126;8.710;2023-07-20T14:34:23;26.51;45.03
67157;SHT31;54086;50.126;8.710;2023-07-20T14:36:49;26.48;44.78
67157;SHT31;54086;50.126;8.710;2023-07-20T14:39:15;26.77;44.09
67157;SHT31;54086;50.126;8.710;2023-07-20T14:41:40;26.84;44.26
67157;SHT31;54086;50.126;8.710;2023-07-20T14:44:06;26.88;44.15
67157;SHT31;54086;50.126;8.710;2023-07-20T14:46:31;26.80;44.01
67157;SHT31;54086;50.126;8.710;2023-07-20T14:48:57;27.02;43.79
67157;SHT31;54086;50.126;8.710;2023-07-20T14:51:23;26.62;44.47
67157;SHT31;54086;50.126;8.710;2023-07-20T14:53:48;26.72;44.07
67157;SHT31;54086;50.126;8.710;2023-07-20T14:56:13;27.16;43.55
67157;SHT31;54086;50.126;8.710;2023-07-20T14:58:39;27.39;43.96
67157;SHT31;54086;50.126;8.710;2023-07-20T15:01:04;27.32;43.44
67157;SHT31;54086;50.126;8.710;2023-07-20T15:03:30;27.15;43.69
67157;SHT31;54086;50.126;8.710;2023-07-20T15:05:58;27.28;43.63
67157;SHT31;54086;50.126;8.710;2023-07-20T15:08:24;27.25;43.49
67157;SHT31;54086;50.126;8.710;2023-07-20T15:10:49;26.84;43.61
67157;SHT31;54086;50.126;8.710;2023-07-20T15:13:15;26.54;44.17
67157;SHT31;54086;50.126;8.710;2023-07-20T15:15:42;26.68;44.35
67157;SHT31;54086;50.126;8.710;2023-07-20T15:18:08;26.52;43.84
67157;SHT31;54086;50.126;8.710;2023-07-20T15:20:33;26.44;44.55
67157;SHT31;54086;50.126;8.710;2023-07-20T15:22:59;26.51;44.58
67157;SHT31;54086;50.126;8.710;2023-07-20T15:25:24;26.58;44.04
67157;SHT31;54086;50.126;8.710;2023-07-20T15:27:50;26.39;44.43
67157;SHT31;54086;50.126;8.710;2023-07-20T15:30:15;25.99;44.58
67157;SHT31;54086;50.126;8.710;2023-07-20T15:32:41;26.16;44.64
67157;SHT31;54086;50.126;8.710;2023-07-20T15:35:07;26.09;44.63
67157;SHT31;54086;50.126;8.710;2023-07-20T15:37:32;25.62;45.16